Kamas, Utah
Current Conditions -  °F | °C
As of 1:35 PM on Tuesday 21 Oct 2014 (Local Time) from K36U Reporting Station
Scattered Clouds Scattered Clouds  
Wind Chill: 61°   Ceiling: Unl
Heat Index: 61°   Visibility: 10mi
Dew Point: 36°   Wind: 9mph
Humidity: 39%   Direction: 220°SW
Pressure: 29.96"   Gusts: NA
Location:  40.64°N, 111.28°W
Report Text: K36U 211935Z AUTO 22008KT 10SM SCT070 SCT085 SCT110 16/02 A2996 RMK AO2 LTG DSNT E THRU SW
Loading
Personal Weather Stations






























Interactive Weather Map New forecast layout! Learn more

10-Day Weather Forecast

Advertisements
Track Severe Weather on mobile